createdAt,value
2022-10-28T06:41:48.061Z,25.47
2022-10-28T06:46:54.855Z,25.23
2022-10-28T06:57:34.783Z,26.03
2022-10-28T07:02:58.641Z,24.13
2022-10-28T07:08:21.769Z,31.27
2022-10-28T07:13:27.453Z,30.67
2022-10-28T07:18:32.518Z,28.40
2022-10-28T07:23:36.090Z,29.90
2022-10-28T07:28:39.565Z,26.80
2022-10-28T07:33:44.895Z,24.87
2022-10-28T07:38:51.720Z,27.60
2022-10-28T07:43:55.259Z,29.90
2022-10-28T07:49:01.027Z,22.07
2022-10-28T08:00:16.089Z,29.33
2022-10-28T08:05:21.242Z,35.67
2022-10-28T08:10:24.890Z,33.10
2022-10-28T08:15:29.865Z,29.43
2022-10-28T08:20:35.015Z,27.23
2022-10-28T08:25:38.798Z,36.67
2022-10-28T08:30:57.039Z,30.17
2022-10-28T08:36:04.269Z,28.60
2022-10-28T08:41:17.120Z,26.40
2022-10-28T08:46:26.603Z,21.27
2022-10-28T08:51:38.248Z,24.57
2022-10-28T08:56:46.259Z,22.20
2022-10-28T09:01:52.263Z,23.70
2022-10-28T09:06:57.568Z,22.43
2022-10-28T09:12:12.624Z,37.10
2022-10-28T09:17:20.332Z,24.93
2022-10-28T09:22:28.858Z,23.23
2022-10-28T09:27:42.976Z,18.37
2022-10-28T09:32:50.432Z,24.60
2022-10-28T09:38:08.996Z,19.03
2022-10-28T09:43:26.141Z,21.60
2022-10-28T09:48:31.287Z,20.17
2022-10-28T09:53:43.398Z,19.93
2022-10-28T09:58:48.058Z,26.13
2022-10-28T10:03:52.582Z,22.57
2022-10-28T10:08:58.478Z,40.43
2022-10-28T10:14:06.452Z,21.77
2022-10-28T10:19:12.162Z,28.53
2022-10-28T10:24:30.285Z,26.40
2022-10-28T10:29:36.043Z,15.37
2022-10-28T10:34:40.495Z,13.33
2022-10-28T10:39:47.670Z,22.03
2022-10-28T10:45:03.411Z,17.33
2022-10-28T10:50:26.894Z,19.17
2022-10-28T10:55:38.216Z,18.33
2022-10-28T11:00:46.764Z,28.70
2022-10-28T11:06:05.330Z,17.20
2022-10-28T11:11:22.088Z,24.03
2022-10-28T11:16:26.555Z,20.37
2022-10-28T11:21:50.522Z,17.63
2022-10-28T11:26:59.920Z,15.07
2022-10-28T11:32:17.155Z,16.17
2022-10-28T11:37:27.663Z,14.97
2022-10-28T11:42:39.665Z,20.50
2022-10-28T11:48:02.903Z,21.40
2022-10-28T11:53:38.780Z,29.53
2022-10-28T11:58:54.241Z,17.10
2022-10-28T12:04:07.668Z,17.83
2022-10-28T12:09:22.558Z,15.70
2022-10-28T12:14:32.252Z,18.30
2022-10-28T12:19:39.872Z,19.20
2022-10-28T12:24:44.979Z,15.23
2022-10-28T12:29:52.531Z,17.57
2022-10-28T12:35:01.729Z,21.60
2022-10-28T12:40:09.480Z,13.50
2022-10-28T12:45:15.884Z,15.90
2022-10-28T12:50:25.824Z,17.97
2022-10-28T12:55:35.091Z,19.80
2022-10-28T13:00:46.614Z,19.13
2022-10-28T13:05:55.244Z,13.00
2022-10-28T13:11:13.667Z,17.10
2022-10-28T13:16:37.106Z,16.83
2022-10-28T13:21:57.375Z,21.40
2022-10-28T13:27:03.481Z,13.97
2022-10-28T13:32:08.445Z,14.30
2022-10-28T13:37:20.694Z,14.33
2022-10-28T13:42:48.179Z,16.43
2022-10-28T13:47:53.024Z,14.00
2022-10-28T13:53:29.932Z,16.40
2022-10-28T13:58:33.416Z,15.07
2022-10-28T14:03:40.265Z,14.73
2022-10-28T14:15:44.360Z,21.03
2022-10-28T14:35:57.858Z,22.33
2022-10-28T14:41:51.248Z,24.97
2022-10-28T14:47:21.064Z,20.93
2022-10-28T14:59:53.200Z,28.20
2022-10-28T15:05:03.916Z,25.87
2022-10-28T15:10:15.713Z,27.47
2022-10-28T15:15:22.995Z,26.80
2022-10-28T15:20:29.991Z,29.37
2022-10-28T15:25:33.489Z,24.93
2022-10-28T15:30:45.013Z,27.67
2022-10-28T15:35:51.379Z,30.03
2022-10-28T15:40:54.855Z,29.13
2022-10-28T15:46:10.285Z,26.67
2022-10-28T15:51:16.869Z,34.97
2022-10-28T15:56:24.988Z,35.13
2022-10-28T16:01:30.913Z,31.90
2022-10-28T16:06:37.813Z,36.33
2022-10-28T16:11:44.161Z,28.77
2022-10-28T16:16:47.728Z,29.30
2022-10-28T16:21:53.497Z,28.17
2022-10-28T16:27:13.585Z,31.63
2022-10-28T16:32:18.168Z,34.37
2022-10-28T16:37:25.688Z,36.53
2022-10-28T16:42:29.304Z,30.47
2022-10-28T16:47:33.048Z,37.70
2022-10-28T16:52:41.934Z,44.80
2022-10-28T16:57:45.516Z,56.13
2022-10-28T17:02:51.122Z,48.87
2022-10-28T17:07:58.137Z,39.40
2022-10-28T17:24:32.859Z,35.10
2022-10-28T17:40:57.617Z,38.60
2022-10-28T18:32:06.319Z,42.33
2022-10-28T18:37:11.857Z,41.07
2022-10-28T18:42:19.272Z,38.50
2022-10-28T18:47:27.112Z,36.00
2022-10-28T18:58:14.539Z,40.77
2022-10-28T19:03:22.292Z,35.87
2022-10-28T19:08:25.964Z,37.23
2022-10-28T19:25:08.625Z,40.97
2022-10-28T19:59:27.715Z,36.87
2022-10-28T20:56:51.870Z,42.47
